createdAt,value
2018-04-16T00:00:51.266Z,34.80
2018-04-16T00:03:57.083Z,35.77
2018-04-16T00:07:02.053Z,36.10
2018-04-16T00:10:07.931Z,37.10
2018-04-16T00:13:14.063Z,31.80
2018-04-16T00:16:19.717Z,28.83
2018-04-16T00:19:24.692Z,28.30
2018-04-16T00:22:31.774Z,34.67
2018-04-16T00:25:38.384Z,30.53
2018-04-16T00:28:43.985Z,33.23
2018-04-16T00:31:54.602Z,32.73
2018-04-16T00:35:06.142Z,32.70
2018-04-16T00:38:17.409Z,32.37
2018-04-16T00:41:28.549Z,34.70
2018-04-16T00:44:39.478Z,31.60
2018-04-16T00:47:50.576Z,28.90
2018-04-16T00:51:01.200Z,37.03
2018-04-16T00:54:23.588Z,35.03
2018-04-16T00:57:35.085Z,33.20
2018-04-16T01:00:45.727Z,33.90
2018-04-16T01:03:56.781Z,36.70
2018-04-16T01:07:08.114Z,32.77
2018-04-16T01:13:57.641Z,36.10
2018-04-16T01:17:07.881Z,40.33
2018-04-16T01:20:19.205Z,37.43
2018-04-16T01:23:30.193Z,34.20
2018-04-16T01:26:41.077Z,41.63
2018-04-16T01:29:51.969Z,37.83
2018-04-16T01:33:02.965Z,42.30
2018-04-16T01:36:14.010Z,43.67
2018-04-16T01:39:24.894Z,38.57
2018-04-16T01:46:13.097Z,41.63
2018-04-16T01:49:23.761Z,38.70
2018-04-16T01:52:34.833Z,41.70
2018-04-16T01:55:46.053Z,44.10
2018-04-16T01:58:56.651Z,43.27
2018-04-16T02:02:07.869Z,40.90
2018-04-16T02:05:19.369Z,40.53
2018-04-16T02:08:30.040Z,44.40
2018-04-16T02:11:41.053Z,45.40
2018-04-16T02:14:51.688Z,38.20
2018-04-16T02:18:02.596Z,40.47
2018-04-16T02:21:13.893Z,42.30
2018-04-16T02:28:05.192Z,41.67
2018-04-16T02:31:15.774Z,42.37
2018-04-16T02:34:27.158Z,39.17
2018-04-16T02:37:38.190Z,40.07
2018-04-16T02:40:49.603Z,40.13
2018-04-16T02:44:00.583Z,44.00
2018-04-16T02:47:11.276Z,38.40
2018-04-16T02:50:22.582Z,35.87
2018-04-16T02:53:33.329Z,40.43
2018-04-16T02:56:44.919Z,44.87
2018-04-16T02:59:55.498Z,41.20
2018-04-16T03:03:06.689Z,42.20
2018-04-16T03:06:17.821Z,41.20
2018-04-16T03:09:29.277Z,41.97
2018-04-16T03:12:39.871Z,38.03
2018-04-16T03:15:50.097Z,42.03
2018-04-16T03:19:00.736Z,40.33
2018-04-16T03:22:11.925Z,39.10
2018-04-16T03:25:23.140Z,39.90
2018-04-16T03:28:33.767Z,42.63
2018-04-16T03:31:45.378Z,38.87
2018-04-16T03:34:56.559Z,37.03
2018-04-16T03:38:07.597Z,40.73
2018-04-16T03:41:18.572Z,34.70
2018-04-16T03:44:29.037Z,35.57
2018-04-16T03:47:40.462Z,40.73
2018-04-16T03:50:51.488Z,38.03
2018-04-16T03:53:57.089Z,37.97
2018-04-16T03:57:02.311Z,41.70
2018-04-16T04:00:08.464Z,43.87
2018-04-16T04:03:14.524Z,43.80
2018-04-16T04:06:20.573Z,38.73
2018-04-16T04:09:26.405Z,41.73
2018-04-16T04:12:32.154Z,39.17
2018-04-16T04:15:38.184Z,39.80
2018-04-16T04:18:44.041Z,42.70
2018-04-16T04:21:50.073Z,41.03
2018-04-16T04:25:07.137Z,37.60
2018-04-16T04:28:24.060Z,35.80
2018-04-16T04:31:29.895Z,38.47
2018-04-16T04:34:35.899Z,38.97
2018-04-16T04:37:42.032Z,39.43
2018-04-16T04:40:48.159Z,36.17
2018-04-16T04:43:53.385Z,37.23
2018-04-16T04:46:59.447Z,40.03
2018-04-16T04:50:05.572Z,46.43
2018-04-16T04:53:11.494Z,43.00
2018-04-16T04:56:17.657Z,42.50
2018-04-16T04:59:23.788Z,39.97
2018-04-16T05:02:29.425Z,42.73
2018-04-16T05:05:35.268Z,41.73
2018-04-16T05:08:40.485Z,37.80
2018-04-16T05:11:45.725Z,41.93
2018-04-16T05:14:50.670Z,49.87
2018-04-16T05:17:56.089Z,39.20
2018-04-16T05:21:02.249Z,46.13
2018-04-16T05:24:08.166Z,44.87
2018-04-16T05:27:14.213Z,40.87
2018-04-16T05:30:19.918Z,44.37
2018-04-16T05:33:25.097Z,45.70
2018-04-16T05:36:30.125Z,42.90
2018-04-16T05:39:35.331Z,45.40
2018-04-16T05:42:41.696Z,42.83
2018-04-16T05:45:47.836Z,45.27
2018-04-16T05:48:53.774Z,39.83
2018-04-16T05:51:59.621Z,37.53
2018-04-16T05:55:05.760Z,43.20
2018-04-16T05:58:11.478Z,49.93
2018-04-16T06:01:16.673Z,42.20
2018-04-16T06:04:21.881Z,44.37
2018-04-16T06:07:27.098Z,37.83
2018-04-16T06:10:32.935Z,44.53
2018-04-16T06:13:38.546Z,45.40
2018-04-16T06:16:43.683Z,44.77
2018-04-16T06:19:48.652Z,51.23
2018-04-16T06:22:53.901Z,51.43
2018-04-16T06:25:58.877Z,41.80
2018-04-16T06:29:04.105Z,49.30
2018-04-16T06:32:09.321Z,53.87
2018-04-16T06:35:15.193Z,45.77
2018-04-16T06:38:21.325Z,52.63
2018-04-16T06:41:27.461Z,50.10
2018-04-16T06:44:33.510Z,51.43
2018-04-16T06:47:38.729Z,53.00
2018-04-16T06:50:43.940Z,49.03
2018-04-16T06:53:49.162Z,49.83
2018-04-16T06:56:54.361Z,54.97
2018-04-16T07:00:00.525Z,47.83
2018-04-16T07:03:06.569Z,53.30
2018-04-16T07:06:12.403Z,47.97
2018-04-16T07:09:17.622Z,50.30
2018-04-16T07:12:23.845Z,51.70
2018-04-16T07:15:29.876Z,54.87
2018-04-16T07:18:35.502Z,49.17
2018-04-16T07:21:41.412Z,54.83
2018-04-16T07:24:46.621Z,51.67
2018-04-16T07:27:52.753Z,52.87
2018-04-16T07:30:58.590Z,57.97
2018-04-16T07:34:04.437Z,49.30
2018-04-16T07:37:10.061Z,52.00
2018-04-16T07:40:15.054Z,52.23
2018-04-16T07:43:20.686Z,52.00
2018-04-16T07:46:26.509Z,50.40
2018-04-16T07:49:31.731Z,53.80
2018-04-16T07:52:36.975Z,48.77
2018-04-16T07:55:42.224Z,50.23
2018-04-16T07:58:47.433Z,46.63
2018-04-16T08:01:53.369Z,49.03
2018-04-16T08:04:59.304Z,48.13
2018-04-16T08:08:04.478Z,44.90
2018-04-16T08:11:09.470Z,49.30
2018-04-16T08:14:15.618Z,45.33
2018-04-16T08:17:21.234Z,50.73
2018-04-16T08:20:27.385Z,52.80
2018-04-16T08:23:33.305Z,45.83
2018-04-16T08:26:38.951Z,51.77
2018-04-16T08:29:43.833Z,53.37
2018-04-16T08:32:50.177Z,50.87
2018-04-16T08:35:55.893Z,51.23
2018-04-16T08:39:00.581Z,49.63
2018-04-16T08:42:05.798Z,44.73
2018-04-16T08:45:11.229Z,44.23
2018-04-16T08:48:16.453Z,44.63
2018-04-16T08:51:22.798Z,55.30
2018-04-16T08:54:28.049Z,51.57
2018-04-16T08:57:33.257Z,52.67
2018-04-16T09:00:38.975Z,51.90
2018-04-16T09:03:44.960Z,49.27
2018-04-16T09:06:50.921Z,50.53
2018-04-16T09:09:56.146Z,48.37
2018-04-16T09:13:01.383Z,45.00
2018-04-16T09:16:07.503Z,47.40
2018-04-16T09:19:13.453Z,46.03
2018-04-16T09:22:19.211Z,46.00
2018-04-16T09:25:25.341Z,46.87
2018-04-16T09:28:30.857Z,48.93
2018-04-16T09:31:36.617Z,50.27
2018-04-16T09:34:43.766Z,51.30
2018-04-16T09:37:50.611Z,42.20
2018-04-16T09:40:56.298Z,45.87
2018-04-16T09:44:01.521Z,41.87
2018-04-16T09:47:07.558Z,43.50
2018-04-16T09:50:14.000Z,41.97
2018-04-16T09:53:19.641Z,40.67
2018-04-16T09:56:25.764Z,39.40
2018-04-16T09:59:31.706Z,37.00
2018-04-16T10:02:37.502Z,43.73
2018-04-16T10:05:43.309Z,40.23
2018-04-16T10:08:49.150Z,37.80
2018-04-16T10:11:54.374Z,38.83
2018-04-16T10:15:00.161Z,35.63
2018-04-16T10:18:05.058Z,39.40
2018-04-16T10:21:10.468Z,53.37
2018-04-16T10:24:15.697Z,41.60
2018-04-16T10:27:21.658Z,32.43
2018-04-16T10:30:26.885Z,36.00
2018-04-16T10:33:33.025Z,40.20
2018-04-16T10:36:38.241Z,37.10
2018-04-16T10:39:45.371Z,37.73
2018-04-16T10:42:51.195Z,36.00
2018-04-16T10:45:56.802Z,36.07
2018-04-16T10:49:01.770Z,38.23
2018-04-16T10:52:06.986Z,34.90
2018-04-16T10:55:12.202Z,40.60
2018-04-16T10:58:17.345Z,40.70
2018-04-16T11:01:22.972Z,36.13
2018-04-16T11:04:28.773Z,36.17
2018-04-16T11:07:34.017Z,35.93
2018-04-16T11:10:39.233Z,43.07
2018-04-16T11:13:44.219Z,35.27
2018-04-16T11:16:49.617Z,38.10
2018-04-16T11:19:54.833Z,37.57
2018-04-16T11:22:59.822Z,36.00
2018-04-16T11:26:05.460Z,37.40
2018-04-16T11:29:10.897Z,36.53
2018-04-16T11:32:16.203Z,35.40
2018-04-16T11:35:21.540Z,37.17
2018-04-16T11:38:27.602Z,39.53
2018-04-16T11:41:32.816Z,41.90
2018-04-16T11:44:38.985Z,33.70
2018-04-16T11:47:44.221Z,30.53
2018-04-16T11:50:50.368Z,34.07
2018-04-16T11:53:56.402Z,37.43
2018-04-16T11:57:02.553Z,34.50
2018-04-16T12:00:07.765Z,31.50
2018-04-16T12:03:12.748Z,32.83
2018-04-16T12:06:17.973Z,29.97
2018-04-16T12:09:24.049Z,30.70
2018-04-16T12:12:31.243Z,28.57
2018-04-16T12:15:37.113Z,30.80
2018-04-16T12:18:42.841Z,29.33
2018-04-16T12:21:49.625Z,32.10
2018-04-16T12:24:56.041Z,27.23
2018-04-16T12:28:01.869Z,27.33
2018-04-16T12:31:07.793Z,24.40
2018-04-16T12:34:13.830Z,28.10
2018-04-16T12:37:19.849Z,29.33
2018-04-16T12:40:25.873Z,23.80
2018-04-16T12:43:31.691Z,28.53
2018-04-16T12:46:36.929Z,26.27
2018-04-16T12:49:42.137Z,23.47
2018-04-16T12:52:47.989Z,26.47
2018-04-16T12:55:54.039Z,25.73
2018-04-16T12:59:00.083Z,26.00
2018-04-16T13:02:06.037Z,23.60
2018-04-16T13:05:11.986Z,28.33
2018-04-16T13:08:18.015Z,26.20
2018-04-16T13:11:25.157Z,25.67
2018-04-16T13:14:31.104Z,23.27
2018-04-16T13:17:37.225Z,29.80
2018-04-16T13:20:44.274Z,26.60
2018-04-16T13:23:50.097Z,25.10
2018-04-16T13:26:56.154Z,25.00
2018-04-16T13:30:03.235Z,27.30
2018-04-16T13:33:08.789Z,25.40
2018-04-16T13:36:14.925Z,21.93
2018-04-16T13:39:20.140Z,26.07
2018-04-16T13:42:26.285Z,23.20
2018-04-16T13:45:32.534Z,22.40
2018-04-16T13:48:38.353Z,22.20
2018-04-16T13:51:43.584Z,21.67
2018-04-16T13:54:49.729Z,22.10
2018-04-16T13:57:55.629Z,20.50
2018-04-16T14:01:01.468Z,18.20
2018-04-16T14:04:07.114Z,20.80
2018-04-16T14:07:13.453Z,24.20
2018-04-16T14:10:19.406Z,21.10
2018-04-16T14:13:24.626Z,24.47
2018-04-16T14:16:29.677Z,25.73
2018-04-16T14:19:34.893Z,19.93
2018-04-16T14:22:40.106Z,13.17
2018-04-16T14:25:46.161Z,9.43
2018-04-16T14:28:52.065Z,10.23
2018-04-16T14:31:59.035Z,11.23
2018-04-16T14:35:04.847Z,6.70
2018-04-16T14:38:10.766Z,8.70
2018-04-16T14:41:16.910Z,90.07
2018-04-16T14:44:22.649Z,43.73
2018-04-16T14:47:28.590Z,16.53
2018-04-16T14:50:34.609Z,11.37
2018-04-16T14:53:40.644Z,8.10
2018-04-16T14:56:46.794Z,9.33
2018-04-16T14:59:52.773Z,8.53
2018-04-16T15:02:58.457Z,6.90
2018-04-16T15:06:04.113Z,8.80
2018-04-16T15:09:10.270Z,6.47
2018-04-16T15:12:16.089Z,7.10
2018-04-16T15:15:22.122Z,6.57
2018-04-16T15:18:28.090Z,6.37
2018-04-16T15:21:34.045Z,6.90
2018-04-16T15:24:39.913Z,8.57
2018-04-16T15:27:46.054Z,7.00
2018-04-16T15:30:51.497Z,7.60
2018-04-16T15:33:56.732Z,7.93
2018-04-16T15:37:01.656Z,6.50
2018-04-16T15:40:07.719Z,9.50
2018-04-16T15:43:13.507Z,6.63
2018-04-16T15:46:20.459Z,8.57
2018-04-16T15:49:26.006Z,7.50
2018-04-16T15:52:31.256Z,7.90
2018-04-16T15:55:36.629Z,7.47
2018-04-16T15:58:41.592Z,9.03
2018-04-16T16:01:46.527Z,6.50
2018-04-16T16:04:52.671Z,8.40
2018-04-16T16:07:58.586Z,14.77
2018-04-16T16:11:04.237Z,16.97
2018-04-16T16:14:09.747Z,7.97
2018-04-16T16:17:14.782Z,8.43
2018-04-16T16:20:20.107Z,8.20
2018-04-16T16:23:25.482Z,8.40
2018-04-16T16:26:31.310Z,8.63
2018-04-16T16:29:36.657Z,11.97
2018-04-16T16:32:41.990Z,13.47
2018-04-16T16:35:47.121Z,8.77
2018-04-16T16:38:52.917Z,13.10
2018-04-16T16:41:58.560Z,8.70
2018-04-16T16:45:04.862Z,8.70
2018-04-16T16:48:10.400Z,11.97
2018-04-16T16:51:15.650Z,10.17
2018-04-16T16:54:21.485Z,7.20
2018-04-16T16:57:26.413Z,8.30
2018-04-16T17:00:32.297Z,9.47
2018-04-16T17:03:37.233Z,8.60
2018-04-16T17:06:43.131Z,8.47
2018-04-16T17:09:48.037Z,8.37
2018-04-16T17:12:53.860Z,7.17
2018-04-16T17:15:59.707Z,12.53
2018-04-16T17:19:04.405Z,12.10
2018-04-16T17:22:10.085Z,9.57
2018-04-16T17:25:15.851Z,9.33
2018-04-16T17:28:20.788Z,9.93
2018-04-16T17:31:25.720Z,13.20
2018-04-16T17:34:30.730Z,15.60
2018-04-16T17:37:35.859Z,14.03
2018-04-16T17:40:40.801Z,16.70
2018-04-16T17:43:45.761Z,20.87
2018-04-16T17:46:50.899Z,16.30
2018-04-16T17:49:55.856Z,14.73
2018-04-16T17:53:01.314Z,16.80
2018-04-16T17:56:07.176Z,16.83
2018-04-16T17:59:14.202Z,17.40
2018-04-16T18:02:19.761Z,18.13
2018-04-16T18:05:25.712Z,14.70
2018-04-16T18:08:31.262Z,19.20
2018-04-16T18:11:36.608Z,17.37
2018-04-16T18:14:41.675Z,17.17
2018-04-16T18:17:46.610Z,17.87
2018-04-16T18:20:52.665Z,20.30
2018-04-16T18:23:58.073Z,21.97
2018-04-16T18:27:03.695Z,24.03
2018-04-16T18:30:08.921Z,19.83
2018-04-16T18:33:13.922Z,18.13
2018-04-16T18:36:19.507Z,21.50
2018-04-16T18:39:24.469Z,16.67
2018-04-16T18:42:30.654Z,19.80
2018-04-16T18:45:36.593Z,19.30
2018-04-16T18:48:42.142Z,22.80
2018-04-16T18:51:47.989Z,20.30
2018-04-16T18:54:53.451Z,19.70
2018-04-16T18:58:00.229Z,19.43
2018-04-16T19:01:05.601Z,19.77
2018-04-16T19:04:10.217Z,14.93
2018-04-16T19:07:15.785Z,17.63
2018-04-16T19:10:20.393Z,16.33
2018-04-16T19:13:26.250Z,15.53
2018-04-16T19:16:31.225Z,15.70
2018-04-16T19:19:36.181Z,16.97
2018-04-16T19:22:41.745Z,13.63
2018-04-16T19:25:47.646Z,14.30
2018-04-16T19:28:52.470Z,14.50
2018-04-16T19:31:57.836Z,14.00
2018-04-16T19:35:07.257Z,18.67
2018-04-16T19:38:14.269Z,12.33
2018-04-16T19:41:19.590Z,12.80
2018-04-16T19:44:24.520Z,13.90
2018-04-16T19:47:29.878Z,15.27
2018-04-16T19:50:34.861Z,13.10
2018-04-16T19:53:40.809Z,11.40
2018-04-16T19:56:52.709Z,12.47
2018-04-16T19:59:58.559Z,10.83
2018-04-16T20:03:09.981Z,7.87
2018-04-16T20:06:15.597Z,9.40
2018-04-16T20:09:21.149Z,8.70
2018-04-16T20:12:27.078Z,11.43
2018-04-16T20:15:32.627Z,8.13
2018-04-16T20:18:37.563Z,8.93
2018-04-16T20:21:42.481Z,9.40
2018-04-16T20:24:48.438Z,7.87
2018-04-16T20:27:54.062Z,9.47
2018-04-16T20:30:58.984Z,9.17
2018-04-16T20:34:04.829Z,21.13
2018-04-16T20:37:10.185Z,8.50
2018-04-16T20:40:15.117Z,11.50
2018-04-16T20:43:20.965Z,8.73
2018-04-16T20:46:26.301Z,9.77
2018-04-16T20:49:31.237Z,11.20
2018-04-16T20:52:36.572Z,10.20
2018-04-16T20:55:41.509Z,8.20
2018-04-16T20:58:46.623Z,7.20
2018-04-16T21:01:52.491Z,9.03
2018-04-16T21:04:58.322Z,6.43
2018-04-16T21:08:03.252Z,6.57
2018-04-16T21:11:08.918Z,7.30
2018-04-16T21:14:13.844Z,7.30
2018-04-16T21:17:18.790Z,8.40
2018-04-16T21:20:24.432Z,18.50
2018-04-16T21:23:29.413Z,13.20
2018-04-16T21:26:34.377Z,6.53
2018-04-16T21:29:39.945Z,6.10
2018-04-16T21:32:44.869Z,3.00
2018-04-16T21:35:50.208Z,8.50
2018-04-16T21:38:55.136Z,6.27
2018-04-16T21:42:00.685Z,8.23
2018-04-16T21:45:05.294Z,8.37
2018-04-16T21:48:10.725Z,10.73
2018-04-16T21:51:15.335Z,9.53
2018-04-16T21:54:20.534Z,5.10
2018-04-16T21:57:26.369Z,9.50
2018-04-16T22:00:31.701Z,9.10
2018-04-16T22:03:37.593Z,4.37
2018-04-16T22:06:42.535Z,7.17
2018-04-16T22:09:48.960Z,7.70
2018-04-16T22:12:54.681Z,3.10
2018-04-16T22:15:59.619Z,7.83
2018-04-16T22:19:05.284Z,5.87
2018-04-16T22:22:10.993Z,4.33
2018-04-16T22:25:16.344Z,5.10
2018-04-16T22:28:22.589Z,4.70
2018-04-16T22:31:27.971Z,7.57
2018-04-16T22:34:32.657Z,9.80
2018-04-16T22:37:38.041Z,5.17
2018-04-16T22:40:42.965Z,5.43
2018-04-16T22:43:48.173Z,4.70
2018-04-16T22:46:53.521Z,6.10
2018-04-16T22:49:58.441Z,3.73
2018-04-16T22:53:04.769Z,4.27
2018-04-16T22:56:09.357Z,6.73
2018-04-16T22:59:14.833Z,3.73
2018-04-16T23:02:20.760Z,6.23
2018-04-16T23:05:26.577Z,7.00
2018-04-16T23:08:32.296Z,3.33
2018-04-16T23:11:38.542Z,3.83
2018-04-16T23:14:43.916Z,7.30
2018-04-16T23:17:49.495Z,12.17
2018-04-16T23:20:55.597Z,5.80
2018-04-16T23:24:01.210Z,6.80
2018-04-16T23:27:06.466Z,8.07
2018-04-16T23:30:11.840Z,7.00
2018-04-16T23:33:17.669Z,3.23
2018-04-16T23:36:23.998Z,11.03
2018-04-16T23:39:31.037Z,9.90
2018-04-16T23:42:36.870Z,8.43
2018-04-16T23:45:42.961Z,9.40
2018-04-16T23:48:49.098Z,3.47
2018-04-16T23:51:54.286Z,4.83
2018-04-16T23:54:59.913Z,8.50
2018-04-16T23:58:06.032Z,7.70
